Time;durP1;ratioP1;P1;durP2;ratioP2;P2;SDS_P1;SDS_P2;PMS_P1;PMS_P2;Temp;Humidity;BMP_temperature;BMP_pressure;BME280_temperature;BME280_humidity;BME280_pressure;Samples;Min_cycle;Max_cycle;Signal;HPM_P1;HPM_P2
2022/02/09 00:05:30;;;;;;;7.38;3.00;;;;;;;8.76;84.18;102354.63;5129802;27;20862;-70
2022/02/09 00:07:51;;;;;;;9.88;3.05;;;;;;;8.68;84.71;102354.28;5120314;27;20036;-70
2022/02/09 00:10:17;;;;;;;9.80;3.20;;;;;;;8.72;84.63;102349.66;5110805;28;20085;-68
2022/02/09 00:13:36;;;;;;;7.93;2.85;;;;;;;8.78;83.65;102347.41;5110866;28;20039;-68
2022/02/09 00:15:38;;;;;;;7.18;3.03;;;;;;;8.91;83.33;102352.72;5128916;28;20046;-68
2022/02/09 00:18:19;;;;;;;7.90;2.85;;;;;;;8.87;83.26;102353.06;5114328;28;20055;-68
2022/02/09 00:32:10;;;;;;;7.45;2.90;;;;;;;8.92;82.60;102337.72;5120368;27;20040;-68
2022/02/09 00:37:46;;;;;;;7.40;2.80;;;;;;;8.84;82.70;102320.56;5085343;27;20807;-70
2022/02/09 01:02:41;;;;;;;13.93;4.53;;;;;;;8.78;83.57;102318.31;5069797;28;20489;-70
2022/02/09 01:11:28;;;;;;;11.48;5.15;;;;;;;8.77;83.48;102310.50;5075806;28;20044;-70
2022/02/09 01:11:41;;;;;;;12.57;4.70;;;;;;;8.73;83.75;102312.50;5055964;28;20037;-70
2022/02/09 01:33:09;;;;;;;12.35;5.70;;;;;;;8.72;83.73;102307.31;5058715;28;20044;-70
2022/02/09 01:39:26;;;;;;;14.05;6.35;;;;;;;8.67;84.26;102307.59;5061297;28;20496;-69
2022/02/09 01:55:41;;;;;;;12.07;5.60;;;;;;;8.76;84.04;102298.22;5089124;28;20094;-70
2022/02/09 01:58:07;;;;;;;13.63;6.00;;;;;;;8.76;84.00;102295.56;5090024;28;20123;-69
2022/02/09 02:00:34;;;;;;;11.73;5.03;;;;;;;8.62;84.36;102288.53;5090102;28;20040;-69
2022/02/09 02:03:04;;;;;;;13.18;5.00;;;;;;;8.63;84.23;102285.81;5090365;28;20036;-69
2022/02/09 02:05:33;;;;;;;11.52;5.55;;;;;;;8.67;84.15;102289.09;5088260;28;20493;-69
2022/02/09 02:08:01;;;;;;;17.55;5.80;;;;;;;8.62;84.73;102286.78;5074224;28;20037;-69
2022/02/09 02:10:40;;;;;;;13.30;6.05;;;;;;;8.70;84.05;102282.75;5069799;28;20043;-69
2022/02/09 02:13:25;;;;;;;13.18;6.03;;;;;;;8.68;84.11;102280.22;5069955;28;20064;-69
2022/02/09 02:16:14;;;;;;;12.38;6.15;;;;;;;8.62;84.30;102273.53;5069849;28;20406;-69
2022/02/09 02:18:40;;;;;;;14.20;6.60;;;;;;;8.56;84.52;102268.66;5069676;28;20507;-69
2022/02/09 02:24:20;;;;;;;15.77;7.30;;;;;;;8.72;84.03;102267.63;5114395;27;20116;-69
2022/02/09 02:26:56;;;;;;;15.50;7.78;;;;;;;8.85;83.78;102265.81;5109278;28;20063;-69
2022/02/09 02:30:16;;;;;;;16.67;8.77;;;;;;;8.73;84.19;102262.22;5110764;28;20040;-69
2022/02/09 02:35:36;;;;;;;16.35;9.90;;;;;;;8.68;85.96;102258.19;5092533;28;20381;-69
2022/02/09 02:38:13;;;;;;;18.90;9.82;;;;;;;8.69;85.17;102267.81;5106930;28;20052;-69
2022/02/09 02:46:45;;;;;;;25.02;11.73;;;;;;;8.62;86.39;102262.09;5070459;28;20776;-68
2022/02/09 02:57:25;;;;;;;32.92;12.05;;;;;;;8.55;87.06;102255.53;5032518;28;20041;-67
2022/02/09 03:13:34;;;;;;;23.42;12.90;;;;;;;8.62;87.43;102251.50;5035653;28;20040;-67
2022/02/09 03:16:08;;;;;;;30.67;13.75;;;;;;;8.56;87.62;102251.94;5052260;28;20120;-67
2022/02/09 03:22:14;;;;;;;24.23;12.90;;;;;;;8.45;87.75;102250.84;5038367;28;20131;-67
2022/02/09 03:24:14;;;;;;;27.05;13.52;;;;;;;8.39;88.76;102247.75;5069419;28;20040;-67
2022/02/09 03:26:55;;;;;;;22.85;13.15;;;;;;;8.46;88.54;102243.78;5037449;28;20044;-67
2022/02/09 03:43:30;;;;;;;27.17;14.77;;;;;;;8.30;90.28;102237.81;5069263;28;20431;-67
2022/02/09 03:46:19;;;;;;;25.50;14.85;;;;;;;8.39;90.53;102237.19;5068838;28;20049;-67
2022/02/09 03:48:58;;;;;;;25.45;14.88;;;;;;;8.25;90.98;102241.59;5051511;28;20041;-67
2022/02/09 03:52:07;;;;;;;27.55;15.93;;;;;;;8.23;92.00;102229.44;5036934;28;20037;-67
2022/02/09 03:54:21;;;;;;;28.20;14.57;;;;;;;8.31;91.42;102227.09;5060818;28;20038;-68
2022/02/09 03:57:10;;;;;;;25.98;15.45;;;;;;;8.27;90.39;102226.47;5026585;28;20048;-68
2022/02/09 03:59:34;;;;;;;27.60;14.65;;;;;;;8.09;91.46;102232.97;5021029;28;20041;-67
2022/02/09 04:02:03;;;;;;;27.90;14.00;;;;;;;8.04;92.00;102230.66;5001880;28;20041;-67
2022/02/09 04:04:30;;;;;;;23.95;13.48;;;;;;;8.08;92.05;102210.16;5033766;28;20049;-68
2022/02/09 04:06:57;;;;;;;24.13;14.05;;;;;;;8.27;91.24;102222.97;5025022;28;20404;-68
2022/02/09 04:09:29;;;;;;;26.17;12.98;;;;;;;8.39;90.24;102219.50;5055607;28;20044;-68
2022/02/09 04:12:07;;;;;;;20.10;12.77;;;;;;;8.24;90.09;102217.88;5038395;28;20041;-68
2022/02/09 04:14:47;;;;;;;26.38;13.57;;;;;;;8.23;89.83;102221.50;5039600;28;20393;-68
2022/02/09 04:17:25;;;;;;;24.02;11.98;;;;;;;8.22;90.46;102220.66;5055268;28;20504;-68
2022/02/09 04:36:33;;;;;;;22.48;10.30;;;;;;;8.41;87.47;102201.75;5095907;28;20112;-70
2022/02/09 04:39:11;;;;;;;22.50;10.02;;;;;;;8.39;86.92;102208.94;5110430;28;20054;-68
2022/02/09 04:44:39;;;;;;;22.48;9.45;;;;;;;8.35;87.05;102214.53;5110657;28;20123;-69
2022/02/09 04:47:24;;;;;;;21.55;9.75;;;;;;;8.36;86.32;102208.28;5092685;28;20071;-70
2022/02/09 04:50:18;;;;;;;18.48;8.77;;;;;;;8.40;87.19;102207.13;5075785;28;20106;-67
2022/02/09 04:52:58;;;;;;;18.58;8.93;;;;;;;8.50;84.85;102195.03;5092402;28;20044;-70
2022/02/09 04:55:43;;;;;;;18.30;8.02;;;;;;;8.55;84.57;102205.25;5078531;28;20054;-70
2022/02/09 04:58:39;;;;;;;18.35;8.35;;;;;;;8.43;85.71;102193.75;5078207;28;20062;-68
2022/02/09 05:01:05;;;;;;;16.20;7.38;;;;;;;8.47;84.67;102197.03;5110256;28;20085;-69
2022/02/09 05:04:01;;;;;;;14.63;7.43;;;;;;;8.51;83.85;102201.97;5070343;28;20106;-68
2022/02/09 05:22:57;;;;;;;17.55;6.80;;;;;;;8.57;82.33;102188.34;5072100;28;20042;-68
2022/02/09 05:25:46;;;;;;;15.63;6.22;;;;;;;8.50;81.87;102191.53;5071603;28;20044;-68
2022/02/09 05:28:16;;;;;;;15.15;7.18;;;;;;;8.47;82.67;102191.72;5089181;28;20555;-68
2022/02/09 05:30:46;;;;;;;16.60;6.10;;;;;;;8.57;81.09;102184.88;5087452;28;20535;-68
2022/02/09 05:33:13;;;;;;;18.13;7.10;;;;;;;8.54;81.36;102177.97;5089518;28;20465;-68
2022/02/09 05:35:43;;;;;;;16.88;6.53;;;;;;;8.50;82.53;102181.78;5088022;28;20455;-68
2022/02/09 05:38:12;;;;;;;19.02;7.68;;;;;;;8.62;81.24;102182.72;5102278;28;20048;-68
2022/02/09 05:40:40;;;;;;;18.23;9.05;;;;;;;8.60;80.63;102184.63;5066881;28;20044;-68
2022/02/09 05:43:08;;;;;;;19.52;7.45;;;;;;;8.58;80.58;102176.81;5074338;28;20052;-68
2022/02/09 05:45:57;;;;;;;15.85;6.80;;;;;;;8.62;80.66;102183.59;5075642;28;20128;-69
2022/02/09 05:53:54;;;;;;;16.15;7.57;;;;;;;8.64;80.32;102183.47;5110610;27;20177;-69
2022/02/09 06:01:39;;;;;;;17.38;7.03;;;;;;;8.73;79.76;102188.16;5072743;28;20461;-70
2022/02/09 06:04:06;;;;;;;15.43;7.20;;;;;;;8.68;80.21;102184.97;5053471;28;20048;-69
2022/02/09 06:06:32;;;;;;;16.15;7.38;;;;;;;8.53;80.84;102178.94;5070369;28;20045;-70
2022/02/09 06:09:01;;;;;;;19.63;8.40;;;;;;;8.52;81.16;102182.53;5072240;28;20052;-70
2022/02/09 06:19:53;;;;;;;16.67;7.90;;;;;;;8.70;79.22;102183.06;5061200;28;20102;-68
2022/02/09 06:22:21;;;;;;;15.73;7.75;;;;;;;8.68;79.26;102181.47;5072171;28;20040;-70
2022/02/09 06:24:48;;;;;;;17.08;8.80;;;;;;;8.56;79.68;102191.09;5089577;28;20097;-70
2022/02/09 06:27:16;;;;;;;17.50;7.75;;;;;;;8.62;79.26;102188.88;5054986;28;20051;-70
2022/02/09 06:29:46;;;;;;;16.52;7.93;;;;;;;8.64;79.50;102186.13;5089294;28;20051;-68
2022/02/09 06:32:15;;;;;;;18.15;8.73;;;;;;;8.64;80.13;102178.19;5089654;28;20115;-68
2022/02/09 06:34:43;;;;;;;18.05;8.00;;;;;;;8.64;79.96;102183.47;5032737;28;20390;-69
2022/02/09 06:37:20;;;;;;;19.08;8.57;;;;;;;8.68;79.40;102182.31;5089582;28;20040;-68
2022/02/09 06:39:55;;;;;;;17.08;8.38;;;;;;;8.63;80.80;102180.00;5055583;28;20048;-68
2022/02/09 06:42:23;;;;;;;19.25;8.98;;;;;;;8.69;79.94;102181.34;5071380;28;20108;-68
2022/02/09 06:44:52;;;;;;;16.63;8.50;;;;;;;8.62;81.12;102191.53;5071298;28;20438;-68
2022/02/09 06:47:23;;;;;;;20.20;8.85;;;;;;;8.60;80.26;102197.88;5071196;28;20465;-68
2022/02/09 06:49:57;;;;;;;21.08;8.95;;;;;;;8.52;80.92;102201.03;5088835;28;20382;-68
2022/02/09 06:52:24;;;;;;;22.30;9.32;;;;;;;8.54;81.38;102198.31;5077572;28;20052;-68
2022/02/09 06:55:08;;;;;;;28.77;9.27;;;;;;;8.53;81.59;102196.59;5087725;28;20090;-68
2022/02/09 06:57:58;;;;;;;22.23;9.27;;;;;;;8.47;81.96;102194.38;5088954;28;20068;-68
2022/02/09 07:00:23;;;;;;;16.73;8.50;;;;;;;8.55;81.75;102200.84;5087835;28;20048;-68
2022/02/09 07:02:51;;;;;;;17.00;9.15;;;;;;;8.60;81.53;102193.44;5071351;28;20115;-68
2022/02/09 07:05:19;;;;;;;17.58;9.60;;;;;;;8.54;81.82;102196.50;5052604;28;20399;-68
2022/02/09 07:07:45;;;;;;;20.63;9.43;;;;;;;8.55;81.73;102200.84;5068066;28;20044;-68
2022/02/09 07:10:13;;;;;;;23.73;10.15;;;;;;;8.54;81.98;102193.84;5057584;28;20068;-68
2022/02/09 07:12:41;;;;;;;19.30;9.38;;;;;;;8.54;82.36;102198.31;5073984;28;20041;-69
2022/02/09 07:15:15;;;;;;;17.77;9.00;;;;;;;8.57;81.52;102201.59;5074461;28;20044;-69
2022/02/09 07:17:44;;;;;;;16.73;9.23;;;;;;;8.58;82.03;102200.63;5074252;28;20049;-69
2022/02/09 07:20:24;;;;;;;16.90;9.10;;;;;;;8.60;81.94;102196.09;5075114;28;20111;-69
2022/02/09 07:22:54;;;;;;;16.08;8.65;;;;;;;8.67;81.62;102200.94;5074126;28;20114;-69
2022/02/09 07:25:30;;;;;;;18.17;9.23;;;;;;;8.50;82.14;102200.31;5074142;28;20045;-69
2022/02/09 07:28:01;;;;;;;20.63;9.35;;;;;;;8.52;81.42;102202.84;5074035;28;20048;-69
2022/02/09 07:30:28;;;;;;;25.15;9.50;;;;;;;8.71;80.94;102191.84;5073576;28;20127;-69
2022/02/09 07:32:57;;;;;;;18.98;9.52;;;;;;;8.54;81.40;102191.19;5073863;28;20087;-69
2022/02/09 07:35:24;;;;;;;19.52;9.88;;;;;;;8.50;82.14;102205.59;5057681;28;20135;-69
2022/02/09 07:37:51;;;;;;;18.15;9.63;;;;;;;8.50;82.70;102210.06;5073915;28;20052;-69
2022/02/09 07:40:21;;;;;;;20.13;9.10;;;;;;;8.54;82.49;102208.88;5073952;28;20485;-69
2022/02/09 07:42:52;;;;;;;23.17;8.65;;;;;;;8.71;80.81;102213.84;5074980;28;20045;-69
2022/02/09 07:51:11;;;;;;;16.15;9.10;;;;;;;8.64;81.14;102202.84;5110951;27;20323;-68
2022/02/09 07:53:37;;;;;;;17.45;8.93;;;;;;;8.43;81.75;102196.38;5110798;28;20450;-68
2022/02/09 07:56:04;;;;;;;21.80;8.90;;;;;;;8.68;81.04;102200.84;5089808;28;20041;-68
2022/02/09 07:58:30;;;;;;;18.08;8.73;;;;;;;8.67;80.61;102203.59;5090058;28;20055;-69
2022/02/09 08:00:57;;;;;;;16.95;7.95;;;;;;;8.56;80.69;102199.88;5089156;28;20048;-69
2022/02/09 08:03:24;;;;;;;25.35;8.85;;;;;;;8.65;81.08;102199.25;5088412;28;20507;-68
2022/02/09 08:05:51;;;;;;;17.45;8.80;;;;;;;8.59;80.82;102177.69;5089031;28;20070;-68
2022/02/09 08:08:18;;;;;;;19.02;8.60;;;;;;;8.64;80.76;102202.00;5087275;28;20042;-68
2022/02/09 08:10:53;;;;;;;17.83;9.05;;;;;;;8.61;80.75;102191.63;5090056;28;20044;-68
2022/02/09 08:28:32;;;;;;;18.20;8.18;;;;;;;8.99;79.42;102186.31;5115390;28;20457;-70
2022/02/09 08:30:03;;;;;;;14.40;7.78;;;;;;;9.35;78.41;102186.44;5111497;28;20574;-69
2022/02/09 08:35:09;;;;;;;18.33;8.07;;;;;;;9.22;79.13;102187.34;5106933;27;20658;-71
2022/02/09 08:37:36;;;;;;;19.70;8.25;;;;;;;9.21;78.77;102187.44;5098597;28;20041;-69
2022/02/09 08:40:05;;;;;;;19.05;9.13;;;;;;;9.36;77.67;102183.66;5096510;28;20143;-69
2022/02/09 08:42:33;;;;;;;19.38;7.30;;;;;;;9.30;77.60;102184.13;5091798;28;20431;-69
2022/02/09 08:45:00;;;;;;;14.65;7.10;;;;;;;9.34;76.87;102182.09;5092912;28;20040;-70
2022/02/09 08:47:47;;;;;;;17.52;7.10;;;;;;;9.27;77.49;102183.50;5093473;28;20515;-70
2022/02/09 08:50:15;;;;;;;12.90;6.97;;;;;;;9.25;77.31;102185.41;5074808;28;20041;-70
2022/02/09 08:52:42;;;;;;;12.85;5.72;;;;;;;9.34;76.59;102182.94;5093305;28;20097;-69
2022/02/09 08:55:10;;;;;;;12.88;6.13;;;;;;;9.28;76.84;102178.09;5095450;28;20484;-70
2022/02/09 08:57:37;;;;;;;12.57;5.93;;;;;;;9.26;77.37;102185.31;5093656;28;20400;-69
2022/02/09 09:00:13;;;;;;;12.65;5.85;;;;;;;9.14;77.28;102178.25;5091557;28;20546;-70
2022/02/09 09:02:45;;;;;;;12.07;5.30;;;;;;;9.37;76.12;102180.06;5072085;28;20076;-70
2022/02/09 09:05:21;;;;;;;12.85;5.57;;;;;;;9.46;76.75;102183.88;5092568;28;20067;-70
2022/02/09 09:07:55;;;;;;;14.23;5.35;;;;;;;9.50;75.77;102173.91;5089946;28;20040;-70
2022/02/09 09:10:34;;;;;;;10.90;5.13;;;;;;;9.46;75.84;102156.50;5090955;28;20125;-70
2022/02/09 09:59:07;;;;;;;15.38;7.75;;;;;;;9.00;80.14;102164.19;5069186;28;20041;-68
2022/02/09 10:32:48;;;;;;;18.42;7.63;;;;;;;9.49;78.83;102175.69;5086797;28;21770;-64
2022/02/09 10:35:26;;;;;;;18.27;7.63;;;;;;;9.37;79.18;102184.53;5087090;28;20047;-64
2022/02/09 10:37:56;;;;;;;19.40;8.25;;;;;;;9.39;78.83;102185.28;5085970;28;20044;-64
2022/02/09 10:40:42;;;;;;;18.63;7.97;;;;;;;9.23;79.09;102190.81;5067917;28;20097;-63
2022/02/09 10:43:31;;;;;;;16.75;7.90;;;;;;;9.21;79.12;102179.50;5078615;28;20086;-63
2022/02/09 10:46:19;;;;;;;19.92;8.25;;;;;;;9.30;78.98;102183.28;5071262;28;20037;-63
2022/02/09 10:48:52;;;;;;;17.15;8.20;;;;;;;9.45;78.74;102189.28;5066944;28;20045;-63
2022/02/09 10:51:29;;;;;;;17.55;7.90;;;;;;;9.54;78.45;102186.78;5087604;28;20044;-63
2022/02/09 10:54:17;;;;;;;21.77;8.65;;;;;;;9.33;79.47;102188.34;5082501;28;20036;-63
2022/02/09 10:56:47;;;;;;;20.98;8.25;;;;;;;9.31;79.41;102174.38;5048999;28;20066;-63
2022/02/09 10:59:19;;;;;;;17.48;8.65;;;;;;;9.32;80.05;102198.09;5070699;28;20489;-68
2022/02/09 11:01:46;;;;;;;24.13;9.65;;;;;;;9.30;80.06;102189.41;5087687;28;20044;-68
2022/02/09 11:04:13;;;;;;;19.50;8.35;;;;;;;9.34;79.98;102195.34;5085728;28;20044;-69
2022/02/09 11:06:42;;;;;;;21.02;9.10;;;;;;;9.42;79.67;102182.38;5085186;28;20094;-67
2022/02/09 11:09:13;;;;;;;17.17;9.02;;;;;;;9.41;79.95;102178.91;5081667;28;20041;-68
2022/02/09 11:11:42;;;;;;;17.88;9.38;;;;;;;9.44;79.62;102176.97;5083194;28;20051;-68
2022/02/09 11:14:15;;;;;;;17.35;7.88;;;;;;;9.37;79.69;102172.13;5070907;28;20040;-63
2022/02/09 11:16:45;;;;;;;22.52;10.43;;;;;;;9.28;81.23;102172.81;5064865;28;20514;-63
2022/02/09 11:19:14;;;;;;;20.15;9.90;;;;;;;9.47;79.96;102171.47;5066729;28;20044;-68
2022/02/09 11:21:44;;;;;;;22.45;9.57;;;;;;;9.30;79.95;102175.34;5072443;28;20047;-62
2022/02/09 11:24:17;;;;;;;19.80;9.43;;;;;;;9.30;80.29;102159.44;5069503;28;20101;-62
2022/02/09 11:30:08;;;;;;;30.30;10.57;;;;;;;9.34;80.40;102159.09;5122695;27;20411;-64
2022/02/09 11:32:35;;;;;;;20.55;10.10;;;;;;;9.49;80.40;102153.66;5105033;28;20058;-64
2022/02/09 11:35:15;;;;;;;23.17;9.75;;;;;;;9.51;79.04;102147.25;5102455;28;20040;-61
2022/02/09 11:37:53;;;;;;;22.23;9.65;;;;;;;9.55;78.92;102151.41;5104318;28;20381;-61
2022/02/09 11:46:27;;;;;;;22.95;9.20;;;;;;;9.78;77.21;102148.84;5125641;27;20358;-63
2022/02/09 12:09:19;;;;;;;19.98;7.68;;;;;;;10.66;72.35;102127.13;5086218;27;20129;-62
2022/02/09 12:11:57;;;;;;;16.50;6.85;;;;;;;10.45;72.16;102128.78;5085222;28;20048;-63
2022/02/09 12:15:11;;;;;;;15.63;7.65;;;;;;;10.54;72.92;102123.59;5086559;28;20044;-64
2022/02/09 12:20:35;;;;;;;20.23;9.10;;;;;;;10.86;71.90;102117.56;5080664;27;20754;-64
2022/02/09 12:23:09;;;;;;;17.02;6.63;;;;;;;10.89;71.22;102117.31;5069436;28;20075;-64
2022/02/09 12:25:48;;;;;;;18.85;7.25;;;;;;;10.88;71.00;102113.00;5067435;28;20485;-64
2022/02/09 12:28:16;;;;;;;19.20;6.78;;;;;;;10.55;71.49;102108.53;5064832;28;20160;-65
2022/02/09 12:30:44;;;;;;;19.83;5.53;;;;;;;10.76;70.27;102109.47;5055502;28;20044;-64
2022/02/09 12:33:26;;;;;;;13.27;5.43;;;;;;;10.89;71.07;102103.19;5065349;28;20052;-64
2022/02/09 12:36:06;;;;;;;;;;;;;;;10.53;70.05;102111.31;5066569;28;20535;-64
2022/02/09 12:38:33;;;;;;;15.02;5.88;;;;;;;10.64;71.31;102102.50;5081270;28;19921;-64
2022/02/09 12:41:09;;;;;;;14.00;5.50;;;;;;;10.67;69.92;102106.72;5065666;28;20110;-64
2022/02/09 12:46:30;;;;;;;15.38;5.10;;;;;;;10.56;69.57;102103.09;5128101;27;20391;-63
2022/02/09 12:49:16;;;;;;;13.35;5.65;;;;;;;10.44;69.23;102100.56;5112643;28;20039;-65
2022/02/09 12:51:46;;;;;;;12.15;5.32;;;;;;;10.42;69.46;102099.84;5111816;27;20044;-65
2022/02/09 12:54:17;;;;;;;15.55;4.72;;;;;;;10.26;69.63;102100.16;5102637;28;20127;-65
2022/02/09 12:56:47;;;;;;;;;;;;;;;10.22;70.19;102096.91;5117308;27;20039;-65
2022/02/09 12:59:17;;;;;;;15.57;5.43;;;;;;;10.42;70.51;102090.06;5110839;28;20338;-64
2022/02/09 13:01:48;;;;;;;;;;;;;;;10.29;69.55;102089.31;5110209;28;20043;-63
2022/02/09 13:04:35;;;;;;;16.00;5.43;;;;;;;10.11;70.44;102083.63;5097761;28;19942;-64
2022/02/09 13:07:07;;;;;;;11.30;4.43;;;;;;;10.23;70.10;102084.50;5101818;28;20449;-63
2022/02/09 13:09:38;;;;;;;15.32;5.50;;;;;;;10.25;70.23;102074.63;5078773;28;20438;-63
2022/02/09 13:12:24;;;;;;;11.45;4.55;;;;;;;10.36;69.01;102080.78;5107412;28;20177;-63
2022/02/09 13:14:51;;;;;;;16.20;5.07;;;;;;;10.38;69.73;102073.53;5100329;28;20039;-63
2022/02/09 14:13:23;;;;;;;17.20;5.13;;;;;;;10.68;68.16;102037.59;5084829;28;20037;-61
2022/02/09 14:16:54;;;;;;;13.95;5.18;;;;;;;10.69;67.32;102044.59;5069186;28;20538;-61
2022/02/09 14:19:28;;;;;;;17.45;5.70;;;;;;;10.48;67.94;102041.00;5077340;28;20040;-61
2022/02/09 14:48:35;;;;;;;12.93;4.20;;;;;;;10.69;69.75;102031.31;5003767;28;20038;-62
2022/02/09 14:51:30;;;;;;;12.65;4.55;;;;;;;10.99;68.33;102032.47;5021628;28;20046;-62
2022/02/09 14:56:23;;;;;;;19.80;4.50;;;;;;;11.03;68.15;102028.59;5016285;28;20129;-62
2022/02/09 14:58:59;;;;;;;13.15;4.55;;;;;;;11.26;66.72;102032.03;5023335;28;20045;-61
2022/02/09 15:01:36;;;;;;;20.90;5.00;;;;;;;11.19;66.89;102022.88;5014353;28;20050;-62
2022/02/09 15:04:26;;;;;;;21.13;5.10;;;;;;;11.12;67.25;102025.19;5025331;28;20050;-62
2022/02/09 15:07:23;;;;;;;17.35;5.03;;;;;;;11.16;66.95;102023.13;5054820;28;20052;-62
2022/02/09 15:09:53;;;;;;;19.88;4.63;;;;;;;11.06;68.45;102014.19;5033471;28;20041;-62
2022/02/09 15:13:00;;;;;;;16.63;4.88;;;;;;;11.06;67.59;102022.16;5026381;28;20562;-62
2022/02/09 15:15:24;;;;;;;18.75;4.90;;;;;;;11.08;67.74;102018.44;5033478;28;20041;-62
2022/02/09 15:18:49;;;;;;;14.63;4.32;;;;;;;11.10;67.34;102015.66;5034222;28;20156;-62
2022/02/09 15:23:29;;;;;;;15.68;4.30;;;;;;;11.19;66.55;102011.38;5029846;28;20053;-61
2022/02/09 15:26:00;;;;;;;18.70;4.55;;;;;;;10.85;68.20;102015.00;5034281;28;20038;-62
2022/02/09 15:28:27;;;;;;;18.38;4.00;;;;;;;11.01;68.24;102009.28;5031167;28;20042;-61
2022/02/09 15:31:06;;;;;;;14.75;4.13;;;;;;;10.93;69.06;102006.41;5027768;28;20084;-62
2022/02/09 15:33:40;;;;;;;12.77;4.50;;;;;;;10.90;67.38;102001.38;5040543;28;20132;-62
2022/02/09 15:36:36;;;;;;;18.48;4.35;;;;;;;10.82;67.33;102001.13;5066306;28;20124;-61
2022/02/09 15:39:03;;;;;;;15.15;4.43;;;;;;;10.72;67.43;102007.19;5034158;28;20372;-62
2022/02/09 15:41:41;;;;;;;18.10;4.93;;;;;;;10.60;67.86;102004.69;5033780;28;20046;-62
2022/02/09 16:06:35;;;;;;;16.13;4.68;;;;;;;9.92;70.96;101989.63;5032944;28;20055;-62
2022/02/09 16:09:17;;;;;;;13.52;4.47;;;;;;;9.96;70.53;101990.22;5033202;28;20080;-62
2022/02/09 16:22:52;;;;;;;14.70;4.75;;;;;;;9.77;71.40;101980.22;5031827;28;20045;-61
2022/02/09 16:25:31;;;;;;;17.35;5.25;;;;;;;9.66;72.20;101985.47;5032626;28;20050;-61
2022/02/09 16:33:59;;;;;;;15.07;5.65;;;;;;;9.33;72.79;101984.44;5029225;28;20045;-61
2022/02/09 16:37:00;;;;;;;19.20;5.47;;;;;;;9.31;73.38;101986.34;5031095;28;20095;-61
2022/02/09 16:44:42;;;;;;;15.55;5.20;;;;;;;9.14;74.85;101984.97;5032723;28;20049;-61
2022/02/09 16:47:37;;;;;;;16.13;5.25;;;;;;;9.03;74.91;101986.59;5032985;28;20060;-63
2022/02/09 16:50:05;;;;;;;12.05;5.13;;;;;;;8.98;74.92;101979.97;5025142;28;20041;-63
2022/02/09 16:52:41;;;;;;;14.93;4.95;;;;;;;8.87;75.18;101978.09;5032592;28;20038;-61
2022/02/09 17:20:11;;;;;;;28.85;11.20;;;;;;;8.12;78.12;101994.91;5088732;28;20406;-63
2022/02/09 17:22:37;;;;;;;28.00;8.35;;;;;;;8.08;78.72;101996.91;5088415;28;20051;-62
2022/02/09 17:25:04;;;;;;;23.27;8.13;;;;;;;8.05;78.80;101997.09;5088077;28;20040;-64
2022/02/09 17:27:32;;;;;;;23.00;7.35;;;;;;;7.98;79.08;101993.19;5054045;28;20044;-64
2022/02/09 17:32:46;;;;;;;21.67;7.88;;;;;;;7.91;78.59;101994.56;5050376;28;20041;-63
2022/02/09 17:35:20;;;;;;;;;;;;;;;7.85;78.61;101987.09;5066552;28;20040;-63
2022/02/09 17:38:03;;;;;;;22.23;7.32;;;;;;;7.81;79.32;101988.25;5073212;28;20014;-63
2022/02/09 17:57:31;;;;;;;15.25;7.20;;;;;;;7.50;81.18;101980.63;5066674;28;20047;-63
2022/02/09 18:00:29;;;;;;;28.27;7.70;;;;;;;7.49;80.55;101980.72;5088194;28;20050;-63
2022/02/09 18:02:52;;;;;;;21.13;7.65;;;;;;;7.46;81.26;101976.50;5087141;28;20095;-63
2022/02/09 18:05:25;;;;;;;25.70;8.15;;;;;;;7.40;81.12;101973.41;5036397;28;20056;-63
2022/02/09 18:07:58;;;;;;;25.63;9.00;;;;;;;7.37;81.36;101970.97;5070900;28;20044;-63
2022/02/09 18:10:46;;;;;;;19.20;8.40;;;;;;;7.32;81.53;101971.31;5059429;28;20045;-63
2022/02/09 18:13:28;;;;;;;24.65;8.43;;;;;;;7.31;81.38;101969.59;5087897;28;20411;-63
2022/02/09 18:25:13;;;;;;;18.90;8.00;;;;;;;7.23;81.58;101958.72;5054171;28;20123;-64
2022/02/09 18:29:54;;;;;;;21.55;9.73;;;;;;;7.10;82.29;101959.53;5113315;27;20384;-65
2022/02/09 18:41:40;;;;;;;20.15;8.20;;;;;;;7.21;82.13;101964.09;5104210;28;20587;-64
2022/02/09 18:43:05;;;;;;;18.20;8.40;;;;;;;7.16;82.44;101952.16;5120330;28;20118;-64
2022/02/09 18:45:41;;;;;;;21.65;8.70;;;;;;;7.19;82.71;101958.06;5078915;28;20500;-64
2022/02/09 18:48:29;;;;;;;23.40;9.20;;;;;;;7.25;82.70;101952.38;5072803;28;20040;-64
2022/02/09 19:02:31;;;;;;;30.45;9.45;;;;;;;7.64;81.44;101952.41;5111669;27;20182;-64
2022/02/09 19:05:05;;;;;;;21.38;8.77;;;;;;;7.70;81.22;101954.66;5088360;28;20083;-64
2022/02/09 19:08:06;;;;;;;20.98;8.43;;;;;;;7.77;81.25;101960.38;5065824;28;20097;-64
2022/02/09 19:16:19;;;;;;;18.85;8.43;;;;;;;7.91;80.57;101951.47;5089919;28;20051;-64
2022/02/09 19:33:14;;;;;;;19.85;8.95;;;;;;;8.15;78.22;101925.09;5076401;28;20051;-63
2022/02/09 19:44:42;;;;;;;22.85;8.65;;;;;;;8.20;78.08;101926.44;5075500;28;20132;-63
2022/02/09 19:46:55;;;;;;;21.95;9.07;;;;;;;8.21;78.49;101927.31;5097188;28;20064;-64
2022/02/09 19:52:17;;;;;;;23.80;9.30;;;;;;;8.19;78.01;101916.84;5089889;28;20033;-63
2022/02/09 19:57:35;;;;;;;21.00;8.40;;;;;;;8.22;78.21;101923.72;5092667;28;20052;-63
2022/02/09 20:00:06;;;;;;;19.60;9.30;;;;;;;8.20;78.37;101909.75;5062852;28;20048;-63
2022/02/09 20:02:47;;;;;;;24.58;8.77;;;;;;;8.21;77.96;101914.09;5127047;27;20897;-63
2022/02/09 20:05:15;;;;;;;21.17;8.65;;;;;;;8.16;78.21;101909.13;5097678;28;20549;-64
2022/02/09 20:07:44;;;;;;;32.22;9.60;;;;;;;8.14;77.80;101905.75;5108859;28;20043;-64
2022/02/09 20:10:15;;;;;;;24.42;9.55;;;;;;;8.14;77.68;101908.41;5106790;28;20093;-64
2022/02/09 20:12:43;;;;;;;24.20;9.48;;;;;;;8.11;77.92;101908.59;5106824;28;20051;-63
2022/02/09 20:15:12;;;;;;;23.05;9.80;;;;;;;8.05;78.59;101901.97;5114132;28;20043;-63
2022/02/09 20:17:40;;;;;;;26.45;10.45;;;;;;;8.00;78.37;101900.59;5099981;28;20048;-64
2022/02/09 20:20:11;;;;;;;25.90;9.90;;;;;;;7.97;78.73;101906.97;5089709;28;20408;-63
2022/02/09 20:22:39;;;;;;;24.52;10.23;;;;;;;7.90;78.62;101899.59;5093677;28;20028;-64
2022/02/09 20:25:08;;;;;;;26.92;10.05;;;;;;;7.90;79.10;101902.22;5109565;28;20126;-63
2022/02/09 20:27:37;;;;;;;27.40;9.88;;;;;;;7.87;79.29;101898.00;5108444;28;20048;-64
2022/02/09 20:30:08;;;;;;;25.45;9.95;;;;;;;7.76;79.75;101900.53;5097503;28;20086;-64
2022/02/09 20:32:44;;;;;;;25.52;10.13;;;;;;;7.75;79.57;101905.00;5082308;28;20591;-64
2022/02/09 20:35:13;;;;;;;27.45;9.93;;;;;;;7.69;80.02;101898.34;5091099;28;20048;-64
2022/02/09 20:37:46;;;;;;;23.35;10.50;;;;;;;7.67;79.76;101896.75;5104507;28;20033;-63
2022/02/09 20:40:20;;;;;;;29.38;9.88;;;;;;;7.61;79.99;101894.53;5110465;28;20503;-64
2022/02/09 20:42:54;;;;;;;26.58;10.35;;;;;;;7.57;80.39;101899.19;5115667;28;20044;-63
2022/02/09 20:48:07;;;;;;;28.67;11.65;;;;;;;7.61;79.65;101897.19;5151981;27;19921;-64
2022/02/09 20:50:35;;;;;;;35.13;11.15;;;;;;;7.60;79.73;101898.97;5141632;27;20091;-64
2022/02/09 20:53:03;;;;;;;34.88;11.30;;;;;;;7.62;79.65;101890.94;5146446;27;20043;-64
2022/02/09 20:55:30;;;;;;;30.17;11.13;;;;;;;7.58;80.15;101897.38;5146841;27;20136;-63
2022/02/09 20:57:59;;;;;;;30.23;11.48;;;;;;;7.54;80.54;101898.56;5099786;27;20039;-64
2022/02/09 21:01:03;;;;;;;25.10;10.38;;;;;;;7.48;80.85;101892.75;5132019;27;20034;-63
2022/02/09 21:03:39;;;;;;;22.95;9.45;;;;;;;7.44;80.74;101893.91;5127059;27;20058;-64
2022/02/09 21:06:24;;;;;;;30.95;10.75;;;;;;;7.41;81.07;101894.13;5148733;27;20479;-64
2022/02/09 21:11:40;;;;;;;31.33;10.48;;;;;;;7.33;81.33;101900.88;5131119;27;20505;-63
2022/02/09 21:17:18;;;;;;;28.15;11.02;;;;;;;7.22;81.37;101889.25;5134544;27;20043;-63
2022/02/09 21:20:01;;;;;;;27.65;11.38;;;;;;;7.26;81.96;101889.91;5127941;27;20043;-63
2022/02/09 21:42:28;;;;;;;31.90;11.20;;;;;;;7.33;81.35;101864.78;5105029;28;20050;-64
2022/02/09 21:53:36;;;;;;;23.05;10.48;;;;;;;7.35;81.34;101862.00;5110100;28;20044;-64
2022/02/09 21:56:02;;;;;;;28.15;10.20;;;;;;;7.39;81.80;101853.78;5080694;28;20135;-64
2022/02/09 21:58:39;;;;;;;29.65;10.50;;;;;;;7.44;80.87;101846.41;5091739;28;20495;-64